Thunder radar more information blitzortung!


Radar de pluja more information rain snow radar


Visita la nostra xarxa de llocs de meteo:

Template documentation
and downloads

And another site



No particular awareness of the weather is required.    There are no Weather-warnings

Pagina Historial Weather Underground text

Diari Resum January 31, 2018 Unitats:  Tant    Imperial   Mètric
« Previous Dia
SegĂźent Dia »
Diari Setmana Mensual Anual Personalitzada
  Maxima: Minima: Media:
Temperatura: TemperatureC °F /  -17.8 °C 2.5 °F /  -16.4 °C 9.2 °F /  -12.7 °C
Punt de rosada: DewpointC °F /  -17.8 °C -0.6 °F /  -18.1 °C 3.1 °F /  -16.1 °C
Humitat: Humidity % 50 % 66 %
Wind Speed: WindSpeedKMH mph /  0 km/h - 6 mph /  9.7 km/h
RĂ fegues de vent: WindSpeedGustKMH mph /  0 km/h - -
Vent:- - SSW
Pression baro: PressurehPa in /  0 hPa 1011.7 in /  34256.2 hPa -
Precipitacions: 0.0 in /  0 mm    
Historical Graphs
 
 
Dades de taula per January 31, 2018
Temps Temperatura Punt de rosada Pression baro Vent Wind Speed RĂ fegues de vent Humitat Rainfall Rate (Hourly)
TemperatureC °F /  -17.8 °C DewpointC °F /  -17.8 °C PressurehPa in /  0 hPa Calm     Humidity % HourlyPrecipMM in /  0 mm
00:02 6.0 °F /  -14.4 °C 2.1 °F /  -16.6 °C 1030.0 in /  34875.8 hPa NE 3.7 mph /  6 km/h 3.7 mph /  6 km/h 76 % 0.0 in /  0 mm
00:05 2.9 °F /  -16.2 °C -0.2 °F /  -17.9 °C 1026.0 in /  34740.4 hPa Calm     80 % 0.0 in /  0 mm
00:07 6.0 °F /  -14.4 °C 2.3 °F /  -16.5 °C 1030.0 in /  34875.8 hPa NE 2.6 mph /  4.2 km/h 2.6 mph /  4.2 km/h 77 % 0.0 in /  0 mm
00:12 6.0 °F /  -14.4 °C 2.3 °F /  -16.5 °C 1030.0 in /  34875.8 hPa Calm     77 % 0.0 in /  0 mm
00:15 2.8 °F /  -16.2 °C -0.3 °F /  -17.9 °C 1026.0 in /  34740.4 hPa Calm     80 % 0.0 in /  0 mm
00:17 6.0 °F /  -14.4 °C 2.3 °F /  -16.5 °C 1030.0 in /  34875.8 hPa Calm     77 % 0.0 in /  0 mm
00:22 5.9 °F /  -14.5 °C 2.2 °F /  -16.6 °C 1030.0 in /  34875.8 hPa Calm     77 % 0.0 in /  0 mm
00:25 2.6 °F /  -16.3 °C -0.5 °F /  -18.1 °C 1026.0 in /  34740.4 hPa Calm     80 % 0.0 in /  0 mm
00:27 5.8 °F /  -14.6 °C 2.1 °F /  -16.6 °C 1030.0 in /  34875.8 hPa Calm     77 % 0.0 in /  0 mm
00:32 5.8 °F /  -14.6 °C 2.1 °F /  -16.6 °C 1030.0 in /  34875.8 hPa Calm     77 % 0.0 in /  0 mm
00:35 2.5 °F /  -16.4 °C -0.6 °F /  -18.1 °C 1026.0 in /  34740.4 hPa Calm     80 % 0.0 in /  0 mm
00:37 5.7 °F /  -14.6 °C 2.0 °F /  -16.7 °C 1030.0 in /  34875.8 hPa Calm     77 % 0.0 in /  0 mm
00:42 5.7 °F /  -14.6 °C 2.0 °F /  -16.7 °C 1030.0 in /  34875.8 hPa Calm     77 % 0.0 in /  0 mm
00:45 2.5 °F /  -16.4 °C -0.6 °F /  -18.1 °C 1026.0 in /  34740.4 hPa Calm     80 % 0.0 in /  0 mm
00:47 5.7 °F /  -14.6 °C 2.0 °F /  -16.7 °C 1029.0 in /  34841.9 hPa Calm     77 % 0.0 in /  0 mm
00:52 5.7 °F /  -14.6 °C 2.2 °F /  -16.6 °C 1029.0 in /  34841.9 hPa Calm     78 % 0.0 in /  0 mm
00:55 2.5 °F /  -16.4 °C -0.6 °F /  -18.1 °C 1026.0 in /  34740.4 hPa Calm     80 % 0.0 in /  0 mm
00:57 5.7 °F /  -14.6 °C 2.2 °F /  -16.6 °C 1029.0 in /  34841.9 hPa Calm     78 % 0.0 in /  0 mm
01:02 5.6 °F /  -14.7 °C 2.1 °F /  -16.6 °C 1029.0 in /  34841.9 hPa Calm     78 % 0.0 in /  0 mm
01:05 2.5 °F /  -16.4 °C -0.6 °F /  -18.1 °C 1027.0 in /  34774.2 hPa NE 1.6 mph /  2.6 km/h 1.6 mph /  2.6 km/h 80 % 0.0 in /  0 mm
01:07 5.6 °F /  -14.7 °C 2.1 °F /  -16.6 °C 1029.0 in /  34841.9 hPa Calm     78 % 0.0 in /  0 mm
01:12 5.6 °F /  -14.7 °C 2.1 °F /  -16.6 °C 1029.0 in /  34841.9 hPa Calm     78 % 0.0 in /  0 mm
01:15 2.5 °F /  -16.4 °C -0.6 °F /  -18.1 °C 1027.0 in /  34774.2 hPa Calm   1.6 mph /  2.6 km/h 80 % 0.0 in /  0 mm
01:17 5.6 °F /  -14.7 °C 2.1 °F /  -16.6 °C 1029.0 in /  34841.9 hPa Calm     78 % 0.0 in /  0 mm
01:22 5.6 °F /  -14.7 °C 2.1 °F /  -16.6 °C 1029.0 in /  34841.9 hPa Calm     78 % 0.0 in /  0 mm
01:25 2.6 °F /  -16.3 °C -0.5 °F /  -18.1 °C 1026.0 in /  34740.4 hPa Calm   1.6 mph /  2.6 km/h 80 % 0.0 in /  0 mm
01:27 5.5 °F /  -14.7 °C 1.9 °F /  -16.7 °C 1029.0 in /  34841.9 hPa Calm     78 % 0.0 in /  0 mm
01:32 5.4 °F /  -14.8 °C 1.9 °F /  -16.7 °C 1028.0 in /  34808.1 hPa Calm     78 % 0.0 in /  0 mm
01:35 2.6 °F /  -16.3 °C -0.5 °F /  -18.1 °C 1026.0 in /  34740.4 hPa Calm     80 % 0.0 in /  0 mm
01:37 5.3 °F /  -14.8 °C 1.8 °F /  -16.8 °C 1028.0 in /  34808.1 hPa Calm     78 % 0.0 in /  0 mm
01:42 5.3 °F /  -14.8 °C 1.8 °F /  -16.8 °C 1028.0 in /  34808.1 hPa Calm     78 % 0.0 in /  0 mm
01:45 2.7 °F /  -16.3 °C -0.4 °F /  -18 °C 1026.0 in /  34740.4 hPa Calm     80 % 0.0 in /  0 mm
01:47 5.3 °F /  -14.8 °C 1.9 °F /  -16.7 °C 1028.0 in /  34808.1 hPa Calm     79 % 0.0 in /  0 mm
01:52 5.2 °F /  -14.9 °C 1.8 °F /  -16.8 °C 1028.0 in /  34808.1 hPa Calm     79 % 0.0 in /  0 mm
01:55 2.8 °F /  -16.2 °C -0.3 °F /  -17.9 °C 1027.0 in /  34774.2 hPa Calm     80 % 0.0 in /  0 mm
01:57 5.1 °F /  -14.9 °C 1.6 °F /  -16.9 °C 1028.0 in /  34808.1 hPa Calm     78 % 0.0 in /  0 mm
02:02 5.0 °F /  -15 °C 1.5 °F /  -16.9 °C 1028.0 in /  34808.1 hPa Calm     78 % 0.0 in /  0 mm
02:05 2.7 °F /  -16.3 °C -0.2 °F /  -17.9 °C 1026.0 in /  34740.4 hPa Calm     81 % 0.0 in /  0 mm
02:07 4.8 °F /  -15.1 °C 1.3 °F /  -17.1 °C 1028.0 in /  34808.1 hPa Calm     78 % 0.0 in /  0 mm
02:12 4.9 °F /  -15.1 °C 1.6 °F /  -16.9 °C 1028.0 in /  34808.1 hPa Calm     79 % 0.0 in /  0 mm
02:15 2.7 °F /  -16.3 °C -0.2 °F /  -17.9 °C 1026.0 in /  34740.4 hPa Calm     81 % 0.0 in /  0 mm
02:17 4.8 °F /  -15.1 °C 1.4 °F /  -17 °C 1028.0 in /  34808.1 hPa Calm     79 % 0.0 in /  0 mm
02:22 4.7 °F /  -15.2 °C 1.2 °F /  -17.1 °C 1028.0 in /  34808.1 hPa NE 1.9 mph /  3.1 km/h   78 % 0.0 in /  0 mm
02:25 2.8 °F /  -16.2 °C -0.1 °F /  -17.8 °C 1027.0 in /  34774.2 hPa Calm   1.6 mph /  2.6 km/h 81 % 0.0 in /  0 mm
02:35 3.2 °F /  -16 °C 0.4 °F /  -17.6 °C 1027.0 in /  34774.2 hPa Calm     82 % 0.0 in /  0 mm
02:45 3.5 °F /  -15.8 °C 0.9 °F /  -17.3 °C 1027.0 in /  34774.2 hPa Calm   1.6 mph /  2.6 km/h 83 % 0.0 in /  0 mm
02:55 3.3 °F /  -15.9 °C 0.5 °F /  -17.5 °C 1027.0 in /  34774.2 hPa Calm   1.6 mph /  2.6 km/h 82 % 0.0 in /  0 mm
03:05 3.4 °F /  -15.9 °C 0.4 °F /  -17.6 °C 1027.0 in /  34774.2 hPa Calm   1.6 mph /  2.6 km/h 81 % 0.0 in /  0 mm
03:15 4.1 °F /  -15.5 °C 1.3 °F /  -17.1 °C 1027.0 in /  34774.2 hPa Calm     82 % 0.0 in /  0 mm
03:25 4.3 °F /  -15.4 °C 1.3 °F /  -17.1 °C 1027.0 in /  34774.2 hPa NE 1.6 mph /  2.6 km/h 3.2 mph /  5.1 km/h 81 % 0.0 in /  0 mm
03:35 4.6 °F /  -15.2 °C 1.4 °F /  -17 °C 1027.0 in /  34774.2 hPa NE 1.6 mph /  2.6 km/h 3.2 mph /  5.1 km/h 80 % 0.0 in /  0 mm
03:45 4.8 °F /  -15.1 °C 1.7 °F /  -16.8 °C 1027.0 in /  34774.2 hPa NE 1.6 mph /  2.6 km/h 1.6 mph /  2.6 km/h 80 % 0.0 in /  0 mm
03:55 4.8 °F /  -15.1 °C 1.4 °F /  -17 °C 1027.0 in /  34774.2 hPa NNE 3.2 mph /  5.1 km/h 3.2 mph /  5.1 km/h 79 % 0.0 in /  0 mm
04:05 5.4 °F /  -14.8 °C 2.1 °F /  -16.6 °C 1028.0 in /  34808.1 hPa NW 1.6 mph /  2.6 km/h 1.6 mph /  2.6 km/h 79 % 0.0 in /  0 mm
04:15 6.4 °F /  -14.2 °C 3.0 °F /  -16.1 °C 1028.0 in /  34808.1 hPa NE 1.6 mph /  2.6 km/h 3.2 mph /  5.1 km/h 79 % 0.0 in /  0 mm
04:25 6.8 °F /  -14 °C 3.2 °F /  -16 °C 1027.0 in /  34774.2 hPa SE 1.6 mph /  2.6 km/h 3.2 mph /  5.1 km/h 78 % 0.0 in /  0 mm
04:35 7.3 °F /  -13.7 °C 3.6 °F /  -15.8 °C 1028.0 in /  34808.1 hPa South 1.6 mph /  2.6 km/h 3.2 mph /  5.1 km/h 77 % 0.0 in /  0 mm
10:40 7.7 °F /  -13.5 °C 3.7 °F /  -15.7 °C 1028.0 in /  34808.1 hPa ENE 1.9 mph /  3.1 km/h 1.9 mph /  3.1 km/h 76 % 0.0 in /  0 mm
10:45 7.8 °F /  -13.4 °C 3.7 °F /  -15.7 °C 1027.0 in /  34774.2 hPa NE 4.2 mph /  6.8 km/h 4.2 mph /  6.8 km/h 75 % 0.0 in /  0 mm
10:50 8.1 °F /  -13.3 °C 3.9 °F /  -15.6 °C 1027.0 in /  34774.2 hPa NNE 3.7 mph /  6 km/h 3.7 mph /  6 km/h 75 % 0.0 in /  0 mm
10:55 8.2 °F /  -13.2 °C 4.1 °F /  -15.5 °C 1027.0 in /  34774.2 hPa NNW 3.7 mph /  6 km/h 3.7 mph /  6 km/h 75 % 0.0 in /  0 mm
11:00 8.2 °F /  -13.2 °C 3.8 °F /  -15.7 °C 1027.0 in /  34774.2 hPa NE 3.7 mph /  6 km/h 3.7 mph /  6 km/h 74 % 0.0 in /  0 mm
11:05 8.1 °F /  -13.3 °C 3.6 °F /  -15.8 °C 1027.0 in /  34774.2 hPa East 5.6 mph /  9 km/h 5.6 mph /  9 km/h 73 % 0.0 in /  0 mm
11:10 8.2 °F /  -13.2 °C 3.7 °F /  -15.7 °C 1027.0 in /  34774.2 hPa East 3.9 mph /  6.3 km/h 3.9 mph /  6.3 km/h 73 % 0.0 in /  0 mm
11:15 8.6 °F /  -13 °C 4.1 °F /  -15.5 °C 1027.0 in /  34774.2 hPa NE 3.7 mph /  6 km/h 3.7 mph /  6 km/h 73 % 0.0 in /  0 mm
11:20 8.7 °F /  -12.9 °C 3.9 °F /  -15.6 °C 1027.0 in /  34774.2 hPa NE 3.7 mph /  6 km/h 3.7 mph /  6 km/h 72 % 0.0 in /  0 mm
11:25 8.8 °F /  -12.9 °C 4.0 °F /  -15.6 °C 1027.0 in /  34774.2 hPa ENE 3.7 mph /  6 km/h 3.7 mph /  6 km/h 72 % 0.0 in /  0 mm
11:30 9.1 °F /  -12.7 °C 4.1 °F /  -15.5 °C 1027.0 in /  34774.2 hPa East 3.9 mph /  6.3 km/h 3.9 mph /  6.3 km/h 71 % 0.0 in /  0 mm
11:35 9.1 °F /  -12.7 °C 3.9 °F /  -15.6 °C 1027.0 in /  34774.2 hPa NE 5.6 mph /  9 km/h 5.6 mph /  9 km/h 70 % 0.0 in /  0 mm
11:40 9.2 °F /  -12.7 °C 4.0 °F /  -15.6 °C 1027.0 in /  34774.2 hPa South 5.6 mph /  9 km/h 5.6 mph /  9 km/h 70 % 0.0 in /  0 mm
11:45 9.4 °F /  -12.6 °C 4.2 °F /  -15.4 °C 1027.0 in /  34774.2 hPa East 3.7 mph /  6 km/h 3.7 mph /  6 km/h 70 % 0.0 in /  0 mm
11:50 9.7 °F /  -12.4 °C 4.5 °F /  -15.3 °C 1027.0 in /  34774.2 hPa ENE 2.3 mph /  3.7 km/h   70 % 0.0 in /  0 mm
11:55 9.9 °F /  -12.3 °C 4.5 °F /  -15.3 °C 1027.0 in /  34774.2 hPa East 5.8 mph /  9.3 km/h 5.8 mph /  9.3 km/h 69 % 0.0 in /  0 mm
12:00 10.1 °F /  -12.2 °C 4.4 °F /  -15.3 °C 1026.0 in /  34740.4 hPa ESE 3.9 mph /  6.3 km/h 3.9 mph /  6.3 km/h 68 % 0.0 in /  0 mm
12:05 10.4 °F /  -12 °C 4.9 °F /  -15.1 °C 1026.0 in /  34740.4 hPa East 3.9 mph /  6.3 km/h 3.9 mph /  6.3 km/h 69 % 0.0 in /  0 mm
12:10 11.0 °F /  -11.7 °C 5.5 °F /  -14.7 °C 1026.0 in /  34740.4 hPa East 3.7 mph /  6 km/h 3.7 mph /  6 km/h 69 % 0.0 in /  0 mm
12:15 11.5 °F /  -11.4 °C 5.8 °F /  -14.6 °C 1024.9 in /  34703.1 hPa SSE 5.0 mph /  8 km/h 5.0 mph /  8 km/h 68 % 0.0 in /  0 mm
12:20 11.8 °F /  -11.2 °C 6.1 °F /  -14.4 °C 1024.9 in /  34703.1 hPa SW 5.6 mph /  9 km/h 5.6 mph /  9 km/h 68 % 0.0 in /  0 mm
12:25 11.9 °F /  -11.2 °C 6.2 °F /  -14.3 °C 1024.9 in /  34703.1 hPa WSW 7.4 mph /  11.9 km/h 7.4 mph /  11.9 km/h 68 % 0.0 in /  0 mm
12:30 12.0 °F /  -11.1 °C 6.3 °F /  -14.3 °C 1026.0 in /  34740.4 hPa WSW 3.7 mph /  6 km/h 3.7 mph /  6 km/h 68 % 0.0 in /  0 mm
12:35 12.2 °F /  -11 °C 6.2 °F /  -14.3 °C 1026.0 in /  34740.4 hPa WSW 9.3 mph /  15 km/h 9.3 mph /  15 km/h 67 % 0.0 in /  0 mm
12:40 12.8 °F /  -10.7 °C 6.6 °F /  -14.1 °C 1026.0 in /  34740.4 hPa SW 7.4 mph /  11.9 km/h 7.4 mph /  11.9 km/h 66 % 0.0 in /  0 mm
12:45 13.3 °F /  -10.4 °C 6.8 °F /  -14 °C 1024.9 in /  34703.1 hPa SW 9.3 mph /  15 km/h 9.3 mph /  15 km/h 65 % 0.0 in /  0 mm
12:50 13.5 °F /  -10.3 °C 6.6 °F /  -14.1 °C 1024.9 in /  34703.1 hPa SW 9.3 mph /  15 km/h 9.3 mph /  15 km/h 63 % 0.0 in /  0 mm
12:55 13.8 °F /  -10.1 °C 6.7 °F /  -14.1 °C 1024.9 in /  34703.1 hPa SSW 5.6 mph /  9 km/h 5.6 mph /  9 km/h 62 % 0.0 in /  0 mm
13:00 14.0 °F /  -10 °C 6.6 °F /  -14.1 °C 1023.9 in /  34669.3 hPa SW 9.3 mph /  15 km/h 9.3 mph /  15 km/h 61 % 0.0 in /  0 mm
13:05 14.0 °F /  -10 °C 6.3 °F /  -14.3 °C 1023.9 in /  34669.3 hPa SW 9.3 mph /  15 km/h 9.3 mph /  15 km/h 60 % 0.0 in /  0 mm
13:10 14.2 °F /  -9.9 °C 6.3 °F /  -14.3 °C 1023.9 in /  34669.3 hPa SW 11.1 mph /  17.9 km/h 11.1 mph /  17.9 km/h 59 % 0.0 in /  0 mm
13:15 14.4 °F /  -9.8 °C 6.7 °F /  -14.1 °C 1023.9 in /  34669.3 hPa SW 9.3 mph /  15 km/h 9.3 mph /  15 km/h 60 % 0.0 in /  0 mm
13:20 14.9 °F /  -9.5 °C 7.2 °F /  -13.8 °C 1023.9 in /  34669.3 hPa SW 11.1 mph /  17.9 km/h 11.1 mph /  17.9 km/h 60 % 0.0 in /  0 mm
13:25 14.8 °F /  -9.6 °C 6.8 °F /  -14 °C 1023.9 in /  34669.3 hPa SW 11.1 mph /  17.9 km/h 11.1 mph /  17.9 km/h 59 % 0.0 in /  0 mm
13:30 14.8 °F /  -9.6 °C 6.3 °F /  -14.3 °C 1023.9 in /  34669.3 hPa WSW 13.0 mph /  20.9 km/h 13.0 mph /  20.9 km/h 57 % 0.0 in /  0 mm
13:35 15.0 °F /  -9.4 °C 6.3 °F /  -14.3 °C 1023.9 in /  34669.3 hPa South 13.0 mph /  20.9 km/h 13.0 mph /  20.9 km/h 56 % 0.0 in /  0 mm
13:40 15.1 °F /  -9.4 °C 6.1 °F /  -14.4 °C 1023.9 in /  34669.3 hPa SW 9.3 mph /  15 km/h 9.5 mph /  15.3 km/h 55 % 0.0 in /  0 mm
13:45 15.2 °F /  -9.3 °C 6.2 °F /  -14.3 °C 1023.9 in /  34669.3 hPa SSW 11.1 mph /  17.9 km/h 11.1 mph /  17.9 km/h 55 % 0.0 in /  0 mm
13:50 15.4 °F /  -9.2 °C 6.4 °F /  -14.2 °C 1023.9 in /  34669.3 hPa West 9.5 mph /  15.3 km/h 9.5 mph /  15.3 km/h 55 % 0.0 in /  0 mm
13:55 15.5 °F /  -9.2 °C 6.2 °F /  -14.3 °C 1023.9 in /  34669.3 hPa SW 11.1 mph /  17.9 km/h 11.1 mph /  17.9 km/h 54 % 0.0 in /  0 mm
14:00 15.4 °F /  -9.2 °C 5.9 °F /  -14.5 °C 1022.9 in /  34635.4 hPa SSW 13.0 mph /  20.9 km/h 13.0 mph /  20.9 km/h 53 % 0.0 in /  0 mm
14:05 15.2 °F /  -9.3 °C 5.4 °F /  -14.8 °C 1022.9 in /  34635.4 hPa WSW 20.4 mph /  32.8 km/h 20.4 mph /  32.8 km/h 52 % 0.0 in /  0 mm
14:10 15.3 °F /  -9.3 °C 5.8 °F /  -14.6 °C 1022.9 in /  34635.4 hPa SSW 13.0 mph /  20.9 km/h 13.0 mph /  20.9 km/h 53 % 0.0 in /  0 mm
14:15 15.2 °F /  -9.3 °C 5.4 °F /  -14.8 °C 1022.9 in /  34635.4 hPa SSW 13.0 mph /  20.9 km/h 13.0 mph /  20.9 km/h 52 % 0.0 in /  0 mm
14:20 15.2 °F /  -9.3 °C 5.4 °F /  -14.8 °C 1022.9 in /  34635.4 hPa SW 13.0 mph /  20.9 km/h 13.0 mph /  20.9 km/h 52 % 0.0 in /  0 mm
14:25 15.2 °F /  -9.3 °C 5.4 °F /  -14.8 °C 1022.9 in /  34635.4 hPa SW 18.5 mph /  29.8 km/h 18.5 mph /  29.8 km/h 52 % 0.0 in /  0 mm
14:30 15.3 °F /  -9.3 °C 5.5 °F /  -14.7 °C 1022.9 in /  34635.4 hPa SSW 9.3 mph /  15 km/h 9.3 mph /  15 km/h 52 % 0.0 in /  0 mm
14:35 15.5 °F /  -9.2 °C 5.4 °F /  -14.8 °C 1022.9 in /  34635.4 hPa SW 13.0 mph /  20.9 km/h 13.0 mph /  20.9 km/h 51 % 0.0 in /  0 mm
14:40 15.3 °F /  -9.3 °C 5.2 °F /  -14.9 °C 1022.9 in /  34635.4 hPa West 9.3 mph /  15 km/h 9.3 mph /  15 km/h 51 % 0.0 in /  0 mm
14:45 15.5 °F /  -9.2 °C 5.4 °F /  -14.8 °C 1022.9 in /  34635.4 hPa SSW 20.1 mph /  32.3 km/h 20.1 mph /  32.3 km/h 51 % 0.0 in /  0 mm
14:50 15.3 °F /  -9.3 °C 4.9 °F /  -15.1 °C 1022.9 in /  34635.4 hPa SW 14.8 mph /  23.8 km/h 14.8 mph /  23.8 km/h 50 % 0.0 in /  0 mm
14:55 15.6 °F /  -9.1 °C 5.5 °F /  -14.7 °C 1022.9 in /  34635.4 hPa SW 9.3 mph /  15 km/h 9.3 mph /  15 km/h 51 % 0.0 in /  0 mm
15:00 15.5 °F /  -9.2 °C 5.1 °F /  -14.9 °C 1021.9 in /  34601.5 hPa SSE 10.0 mph /  16.1 km/h 10.0 mph /  16.1 km/h 50 % 0.0 in /  0 mm
15:05 15.5 °F /  -9.2 °C 5.1 °F /  -14.9 °C 1021.9 in /  34601.5 hPa SW 13.0 mph /  20.9 km/h 13.0 mph /  20.9 km/h 50 % 0.0 in /  0 mm
15:10 15.6 °F /  -9.1 °C 5.2 °F /  -14.9 °C 1021.9 in /  34601.5 hPa SW 13.0 mph /  20.9 km/h 13.0 mph /  20.9 km/h 50 % 0.0 in /  0 mm
15:15 15.4 °F /  -9.2 °C 5.0 °F /  -15 °C 1021.9 in /  34601.5 hPa WSW 14.8 mph /  23.8 km/h 14.8 mph /  23.8 km/h 50 % 0.0 in /  0 mm
15:20 15.4 °F /  -9.2 °C 5.3 °F /  -14.8 °C 1021.9 in /  34601.5 hPa SW 11.1 mph /  17.9 km/h 11.1 mph /  17.9 km/h 51 % 0.0 in /  0 mm
15:25 15.5 °F /  -9.2 °C 5.4 °F /  -14.8 °C 1021.9 in /  34601.5 hPa WSW 9.3 mph /  15 km/h 9.3 mph /  15 km/h 51 % 0.0 in /  0 mm
15:30 15.5 °F /  -9.2 °C 5.4 °F /  -14.8 °C 1021.9 in /  34601.5 hPa SW 9.3 mph /  15 km/h 9.5 mph /  15.3 km/h 51 % 0.0 in /  0 mm
15:35 15.7 °F /  -9.1 °C 5.6 °F /  -14.7 °C 1021.9 in /  34601.5 hPa SW 20.9 mph /  33.6 km/h 20.9 mph /  33.6 km/h 51 % 0.0 in /  0 mm
15:40 15.2 °F /  -9.3 °C 4.8 °F /  -15.1 °C 1021.9 in /  34601.5 hPa SSW 24.5 mph /  39.4 km/h 24.5 mph /  39.4 km/h 50 % 0.0 in /  0 mm
15:45 15.2 °F /  -9.3 °C 5.1 °F /  -14.9 °C 1021.9 in /  34601.5 hPa WSW 11.1 mph /  17.9 km/h 11.1 mph /  17.9 km/h 51 % 0.0 in /  0 mm
15:50 15.2 °F /  -9.3 °C 5.1 °F /  -14.9 °C 1021.9 in /  34601.5 hPa SSW 13.0 mph /  20.9 km/h 13.0 mph /  20.9 km/h 51 % 0.0 in /  0 mm
15:55 15.1 °F /  -9.4 °C 5.1 °F /  -14.9 °C 1021.9 in /  34601.5 hPa South 16.1 mph /  25.9 km/h 16.1 mph /  25.9 km/h 51 % 0.0 in /  0 mm
16:00 14.7 °F /  -9.6 °C 4.7 °F /  -15.2 °C 1020.9 in /  34567.7 hPa SW 20.4 mph /  32.8 km/h 20.4 mph /  32.8 km/h 51 % 0.0 in /  0 mm
16:05 14.7 °F /  -9.6 °C 4.7 °F /  -15.2 °C 1020.9 in /  34567.7 hPa WSW 13.0 mph /  20.9 km/h 13.0 mph /  20.9 km/h 51 % 0.0 in /  0 mm
16:10 14.6 °F /  -9.7 °C 4.6 °F /  -15.2 °C 1020.9 in /  34567.7 hPa SW 16.7 mph /  26.9 km/h 16.7 mph /  26.9 km/h 51 % 0.0 in /  0 mm
16:15 14.5 °F /  -9.7 °C 4.5 °F /  -15.3 °C 1021.9 in /  34601.5 hPa SSW 10.3 mph /  16.6 km/h 10.3 mph /  16.6 km/h 51 % 0.0 in /  0 mm
16:20 14.3 °F /  -9.8 °C 4.3 °F /  -15.4 °C 1021.9 in /  34601.5 hPa SW 13.0 mph /  20.9 km/h 13.0 mph /  20.9 km/h 51 % 0.0 in /  0 mm
16:25 14.2 °F /  -9.9 °C 4.2 °F /  -15.4 °C 1021.9 in /  34601.5 hPa WSW 20.4 mph /  32.8 km/h 20.4 mph /  32.8 km/h 51 % 0.0 in /  0 mm
16:30 14.1 °F /  -9.9 °C 4.1 °F /  -15.5 °C 1021.9 in /  34601.5 hPa SW 13.0 mph /  20.9 km/h 13.0 mph /  20.9 km/h 51 % 0.0 in /  0 mm
16:35 13.9 °F /  -10.1 °C 3.9 °F /  -15.6 °C 1021.9 in /  34601.5 hPa SW 18.5 mph /  29.8 km/h 18.5 mph /  29.8 km/h 51 % 0.0 in /  0 mm
16:40 13.9 °F /  -10.1 °C 3.9 °F /  -15.6 °C 1021.9 in /  34601.5 hPa SW 14.8 mph /  23.8 km/h 14.8 mph /  23.8 km/h 51 % 0.0 in /  0 mm
16:45 13.8 °F /  -10.1 °C 3.8 °F /  -15.7 °C 1021.9 in /  34601.5 hPa WSW 13.0 mph /  20.9 km/h 13.0 mph /  20.9 km/h 51 % 0.0 in /  0 mm
16:50 13.7 °F /  -10.2 °C 3.7 °F /  -15.7 °C 1021.9 in /  34601.5 hPa WSW 20.9 mph /  33.6 km/h 20.9 mph /  33.6 km/h 51 % 0.0 in /  0 mm
16:55 13.5 °F /  -10.3 °C 3.6 °F /  -15.8 °C 1021.9 in /  34601.5 hPa SSW 16.7 mph /  26.9 km/h 16.7 mph /  26.9 km/h 51 % 0.0 in /  0 mm
17:00 13.4 °F /  -10.3 °C 3.4 °F /  -15.9 °C 1020.9 in /  34567.7 hPa WSW 14.8 mph /  23.8 km/h 14.8 mph /  23.8 km/h 51 % 0.0 in /  0 mm
17:05 13.4 °F /  -10.3 °C 3.4 °F /  -15.9 °C 1020.9 in /  34567.7 hPa SSW 16.7 mph /  26.9 km/h 16.7 mph /  26.9 km/h 51 % 0.0 in /  0 mm
17:10 13.3 °F /  -10.4 °C 3.4 °F /  -15.9 °C 1020.9 in /  34567.7 hPa SW 11.1 mph /  17.9 km/h 11.1 mph /  17.9 km/h 51 % 0.0 in /  0 mm
17:15 13.2 °F /  -10.4 °C 3.3 °F /  -15.9 °C 1020.9 in /  34567.7 hPa SW 13.0 mph /  20.9 km/h 13.0 mph /  20.9 km/h 51 % 0.0 in /  0 mm
17:20 13.1 °F /  -10.5 °C 3.4 °F /  -15.9 °C 1020.9 in /  34567.7 hPa South 11.1 mph /  17.9 km/h 11.1 mph /  17.9 km/h 52 % 0.0 in /  0 mm
17:25 13.0 °F /  -10.6 °C 3.4 °F /  -15.9 °C 1020.9 in /  34567.7 hPa SW 13.0 mph /  20.9 km/h 13.0 mph /  20.9 km/h 52 % 0.0 in /  0 mm
17:30 12.8 °F /  -10.7 °C 3.2 °F /  -16 °C 1020.9 in /  34567.7 hPa WSW 9.3 mph /  15 km/h 9.3 mph /  15 km/h 52 % 0.0 in /  0 mm
17:35 12.7 °F /  -10.7 °C 3.1 °F /  -16.1 °C 1020.9 in /  34567.7 hPa SW 14.8 mph /  23.8 km/h 14.8 mph /  23.8 km/h 52 % 0.0 in /  0 mm
17:40 12.5 °F /  -10.8 °C 2.9 °F /  -16.2 °C 1020.9 in /  34567.7 hPa WSW 9.3 mph /  15 km/h 9.3 mph /  15 km/h 52 % 0.0 in /  0 mm
17:45 12.3 °F /  -10.9 °C 3.0 °F /  -16.1 °C 1020.9 in /  34567.7 hPa SW 9.3 mph /  15 km/h 9.3 mph /  15 km/h 53 % 0.0 in /  0 mm
17:50 12.1 °F /  -11.1 °C 2.8 °F /  -16.2 °C 1020.9 in /  34567.7 hPa SSW 9.3 mph /  15 km/h 9.3 mph /  15 km/h 53 % 0.0 in /  0 mm
17:55 12.0 °F /  -11.1 °C 2.7 °F /  -16.3 °C 1020.9 in /  34567.7 hPa SW 8.7 mph /  14 km/h 8.7 mph /  14 km/h 53 % 0.0 in /  0 mm
18:00 11.7 °F /  -11.3 °C 2.7 °F /  -16.3 °C 1019.9 in /  34533.8 hPa SW 13.7 mph /  22 km/h 13.7 mph /  22 km/h 54 % 0.0 in /  0 mm
18:05 11.6 °F /  -11.3 °C 2.6 °F /  -16.3 °C 1019.9 in /  34533.8 hPa SSW 9.3 mph /  15 km/h 9.3 mph /  15 km/h 54 % 0.0 in /  0 mm
18:10 11.5 °F /  -11.4 °C 2.5 °F /  -16.4 °C 1019.9 in /  34533.8 hPa SW 13.0 mph /  20.9 km/h 13.0 mph /  20.9 km/h 54 % 0.0 in /  0 mm
18:15 11.4 °F /  -11.4 °C 2.7 °F /  -16.3 °C 1019.9 in /  34533.8 hPa SW 7.4 mph /  11.9 km/h 7.4 mph /  11.9 km/h 55 % 0.0 in /  0 mm
18:20 11.2 °F /  -11.6 °C 2.5 °F /  -16.4 °C 1019.9 in /  34533.8 hPa SSW 7.4 mph /  11.9 km/h 7.4 mph /  11.9 km/h 55 % 0.0 in /  0 mm
18:25 11.2 °F /  -11.6 °C 2.7 °F /  -16.3 °C 1019.9 in /  34533.8 hPa WSW 5.6 mph /  9 km/h 5.6 mph /  9 km/h 56 % 0.0 in /  0 mm
18:30 11.1 °F /  -11.6 °C 2.7 °F /  -16.3 °C 1019.9 in /  34533.8 hPa WSW 7.4 mph /  11.9 km/h 7.4 mph /  11.9 km/h 56 % 0.0 in /  0 mm
18:35 11.0 °F /  -11.7 °C 2.6 °F /  -16.3 °C 1019.9 in /  34533.8 hPa WSW 5.6 mph /  9 km/h 5.6 mph /  9 km/h 56 % 0.0 in /  0 mm
18:40 11.0 °F /  -11.7 °C 2.8 °F /  -16.2 °C 1019.9 in /  34533.8 hPa West 7.4 mph /  11.9 km/h 7.4 mph /  11.9 km/h 57 % 0.0 in /  0 mm
18:45 10.8 °F /  -11.8 °C 2.6 °F /  -16.3 °C 1019.9 in /  34533.8 hPa West 11.1 mph /  17.9 km/h 11.1 mph /  17.9 km/h 57 % 0.0 in /  0 mm
18:50 10.7 °F /  -11.8 °C 2.8 °F /  -16.2 °C 1019.9 in /  34533.8 hPa West 3.7 mph /  6 km/h 3.7 mph /  6 km/h 58 % 0.0 in /  0 mm
18:55 10.6 °F /  -11.9 °C 2.7 °F /  -16.3 °C 1019.9 in /  34533.8 hPa West 3.7 mph /  6 km/h 3.7 mph /  6 km/h 58 % 0.0 in /  0 mm
19:00 10.5 °F /  -11.9 °C 2.8 °F /  -16.2 °C 1018.8 in /  34496.6 hPa West 3.7 mph /  6 km/h   59 % 0.0 in /  0 mm
19:05 10.3 °F /  -12.1 °C 2.6 °F /  -16.3 °C 1018.8 in /  34496.6 hPa WNW 3.7 mph /  6 km/h 3.7 mph /  6 km/h 59 % 0.0 in /  0 mm
19:10 10.2 °F /  -12.1 °C 2.8 °F /  -16.2 °C 1018.8 in /  34496.6 hPa WNW 1.9 mph /  3.1 km/h   60 % 0.0 in /  0 mm
19:15 10.1 °F /  -12.2 °C 2.7 °F /  -16.3 °C 1018.8 in /  34496.6 hPa WNW 3.7 mph /  6 km/h 3.7 mph /  6 km/h 60 % 0.0 in /  0 mm
19:20 10.0 °F /  -12.2 °C 2.8 °F /  -16.2 °C 1018.8 in /  34496.6 hPa WNW 3.7 mph /  6 km/h 3.7 mph /  6 km/h 61 % 0.0 in /  0 mm
19:25 9.9 °F /  -12.3 °C 2.7 °F /  -16.3 °C 1018.8 in /  34496.6 hPa West 5.6 mph /  9 km/h 5.6 mph /  9 km/h 61 % 0.0 in /  0 mm
19:30 9.8 °F /  -12.3 °C 2.6 °F /  -16.3 °C 1018.8 in /  34496.6 hPa West 1.4 mph /  2.3 km/h   61 % 0.0 in /  0 mm
19:35 9.7 °F /  -12.4 °C 2.8 °F /  -16.2 °C 1018.8 in /  34496.6 hPa West 1.9 mph /  3.1 km/h   62 % 0.0 in /  0 mm
19:40 9.6 °F /  -12.4 °C 2.7 °F /  -16.3 °C 1018.8 in /  34496.6 hPa WSW 5.6 mph /  9 km/h 5.6 mph /  9 km/h 62 % 0.0 in /  0 mm
19:45 9.5 °F /  -12.5 °C 2.6 °F /  -16.3 °C 1018.8 in /  34496.6 hPa WSW 3.7 mph /  6 km/h 3.7 mph /  6 km/h 62 % 0.0 in /  0 mm
19:50 9.3 °F /  -12.6 °C 2.4 °F /  -16.4 °C 1018.8 in /  34496.6 hPa WSW 3.7 mph /  6 km/h 3.7 mph /  6 km/h 62 % 0.0 in /  0 mm
19:55 9.1 °F /  -12.7 °C 2.4 °F /  -16.4 °C 1018.8 in /  34496.6 hPa SW 5.6 mph /  9 km/h 5.6 mph /  9 km/h 63 % 0.0 in /  0 mm
20:00 9.0 °F /  -12.8 °C 2.3 °F /  -16.5 °C 1018.8 in /  34496.6 hPa WSW 3.9 mph /  6.3 km/h 3.9 mph /  6.3 km/h 63 % 0.0 in /  0 mm
20:05 9.0 °F /  -12.8 °C 2.3 °F /  -16.5 °C 1018.8 in /  34496.6 hPa WSW 5.6 mph /  9 km/h 5.6 mph /  9 km/h 63 % 0.0 in /  0 mm
20:10 9.0 °F /  -12.8 °C 2.6 °F /  -16.3 °C 1018.8 in /  34496.6 hPa WSW 5.6 mph /  9 km/h 5.6 mph /  9 km/h 64 % 0.0 in /  0 mm
20:15 8.9 °F /  -12.8 °C 2.4 °F /  -16.4 °C 1018.8 in /  34496.6 hPa WSW 5.6 mph /  9 km/h 5.6 mph /  9 km/h 64 % 0.0 in /  0 mm
20:20 8.9 °F /  -12.8 °C 2.4 °F /  -16.4 °C 1018.8 in /  34496.6 hPa WSW 3.7 mph /  6 km/h 3.9 mph /  6.3 km/h 64 % 0.0 in /  0 mm
20:25 8.8 °F /  -12.9 °C 2.6 °F /  -16.3 °C 1018.8 in /  34496.6 hPa SW 5.6 mph /  9 km/h 5.6 mph /  9 km/h 65 % 0.0 in /  0 mm
20:30 8.8 °F /  -12.9 °C 2.6 °F /  -16.3 °C 1018.8 in /  34496.6 hPa SW 7.4 mph /  11.9 km/h 7.4 mph /  11.9 km/h 65 % 0.0 in /  0 mm
20:35 8.8 °F /  -12.9 °C 2.6 °F /  -16.3 °C 1018.8 in /  34496.6 hPa WSW 7.4 mph /  11.9 km/h 7.4 mph /  11.9 km/h 65 % 0.0 in /  0 mm
20:40 8.8 °F /  -12.9 °C 2.8 °F /  -16.2 °C 1018.8 in /  34496.6 hPa WSW 7.4 mph /  11.9 km/h 7.4 mph /  11.9 km/h 66 % 0.0 in /  0 mm
20:45 8.8 °F /  -12.9 °C 2.8 °F /  -16.2 °C 1018.8 in /  34496.6 hPa West 4.7 mph /  7.6 km/h 4.7 mph /  7.6 km/h 66 % 0.0 in /  0 mm
20:50 8.8 °F /  -12.9 °C 2.8 °F /  -16.2 °C 1018.8 in /  34496.6 hPa WSW 5.6 mph /  9 km/h 5.6 mph /  9 km/h 66 % 0.0 in /  0 mm
20:55 8.7 °F /  -12.9 °C 2.7 °F /  -16.3 °C 1018.8 in /  34496.6 hPa West 5.8 mph /  9.3 km/h 5.8 mph /  9.3 km/h 66 % 0.0 in /  0 mm
21:00 8.8 °F /  -12.9 °C 3.0 °F /  -16.1 °C 1018.8 in /  34496.6 hPa WSW 5.3 mph /  8.5 km/h 5.3 mph /  8.5 km/h 67 % 0.0 in /  0 mm
21:05 8.8 °F /  -12.9 °C 3.0 °F /  -16.1 °C 1018.8 in /  34496.6 hPa WSW 5.6 mph /  9 km/h 5.6 mph /  9 km/h 67 % 0.0 in /  0 mm
21:10 8.8 °F /  -12.9 °C 3.0 °F /  -16.1 °C 1018.8 in /  34496.6 hPa West 5.6 mph /  9 km/h 5.6 mph /  9 km/h 67 % 0.0 in /  0 mm
21:15 8.7 °F /  -12.9 °C 3.1 °F /  -16.1 °C 1018.8 in /  34496.6 hPa West 4.2 mph /  6.8 km/h 4.2 mph /  6.8 km/h 68 % 0.0 in /  0 mm
21:20 8.6 °F /  -13 °C 3.0 °F /  -16.1 °C 1018.8 in /  34496.6 hPa WSW 3.7 mph /  6 km/h 3.7 mph /  6 km/h 68 % 0.0 in /  0 mm
21:25 8.5 °F /  -13.1 °C 2.9 °F /  -16.2 °C 1018.8 in /  34496.6 hPa West 3.9 mph /  6.3 km/h 3.9 mph /  6.3 km/h 68 % 0.0 in /  0 mm
21:30 8.4 °F /  -13.1 °C 2.8 °F /  -16.2 °C 1018.8 in /  34496.6 hPa WNW 3.7 mph /  6 km/h 3.9 mph /  6.3 km/h 68 % 0.0 in /  0 mm
21:35 8.3 °F /  -13.2 °C 2.7 °F /  -16.3 °C 1018.8 in /  34496.6 hPa West 5.6 mph /  9 km/h 5.6 mph /  9 km/h 68 % 0.0 in /  0 mm
21:40 8.3 °F /  -13.2 °C 2.7 °F /  -16.3 °C 1018.8 in /  34496.6 hPa WSW 5.6 mph /  9 km/h 5.6 mph /  9 km/h 68 % 0.0 in /  0 mm
21:45 8.2 °F /  -13.2 °C 2.8 °F /  -16.2 °C 1018.8 in /  34496.6 hPa SW 5.6 mph /  9 km/h 5.6 mph /  9 km/h 69 % 0.0 in /  0 mm
21:50 8.2 °F /  -13.2 °C 2.8 °F /  -16.2 °C 1018.8 in /  34496.6 hPa SW 5.6 mph /  9 km/h 5.6 mph /  9 km/h 69 % 0.0 in /  0 mm
21:56 8.1 °F /  -13.3 °C 2.8 °F /  -16.2 °C 1018.8 in /  34496.6 hPa SW 5.6 mph /  9 km/h 5.6 mph /  9 km/h 69 % 0.0 in /  0 mm
22:01 8.1 °F /  -13.3 °C 2.9 °F /  -16.2 °C 1018.8 in /  34496.6 hPa SW 5.6 mph /  9 km/h 5.6 mph /  9 km/h 70 % 0.0 in /  0 mm
22:05 3.6 °F /  -15.8 °C -0.2 °F /  -17.9 °C 1013.8 in /  34327.3 hPa SW 1.6 mph /  2.6 km/h 3.2 mph /  5.1 km/h 76 % 0.0 in /  0 mm
22:06 8.0 °F /  -13.3 °C 3.1 °F /  -16.1 °C 1018.8 in /  34496.6 hPa SW 7.4 mph /  11.9 km/h 7.4 mph /  11.9 km/h 71 % 0.0 in /  0 mm
22:11 8.0 °F /  -13.3 °C 3.1 °F /  -16.1 °C 1018.8 in /  34496.6 hPa SSW 5.8 mph /  9.3 km/h 5.8 mph /  9.3 km/h 71 % 0.0 in /  0 mm
22:15 3.7 °F /  -15.7 °C 0.1 °F /  -17.7 °C 1013.8 in /  34327.3 hPa WSW 1.6 mph /  2.6 km/h 3.2 mph /  5.1 km/h 77 % 0.0 in /  0 mm
22:16 8.0 °F /  -13.3 °C 3.1 °F /  -16.1 °C 1018.8 in /  34496.6 hPa SW 5.6 mph /  9 km/h 5.6 mph /  9 km/h 71 % 0.0 in /  0 mm
22:21 8.0 °F /  -13.3 °C 3.3 °F /  -15.9 °C 1018.8 in /  34496.6 hPa WSW 5.6 mph /  9 km/h 5.6 mph /  9 km/h 72 % 0.0 in /  0 mm
22:25 3.7 °F /  -15.7 °C 0.1 °F /  -17.7 °C 1013.8 in /  34327.3 hPa Calm   1.6 mph /  2.6 km/h 77 % 0.0 in /  0 mm
22:26 7.9 °F /  -13.4 °C 3.2 °F /  -16 °C 1018.8 in /  34496.6 hPa WSW 5.6 mph /  9 km/h 5.6 mph /  9 km/h 72 % 0.0 in /  0 mm
22:31 7.8 °F /  -13.4 °C 3.1 °F /  -16.1 °C 1018.8 in /  34496.6 hPa WSW 7.4 mph /  11.9 km/h 7.4 mph /  11.9 km/h 72 % 0.0 in /  0 mm
22:35 3.6 °F /  -15.8 °C 0.1 °F /  -17.7 °C 1013.8 in /  34327.3 hPa Calm   3.2 mph /  5.1 km/h 78 % 0.0 in /  0 mm
22:36 7.7 °F /  -13.5 °C 2.9 °F /  -16.2 °C 1018.8 in /  34496.6 hPa WSW 5.6 mph /  9 km/h 5.6 mph /  9 km/h 72 % 0.0 in /  0 mm
22:41 7.7 °F /  -13.5 °C 3.2 °F /  -16 °C 1018.8 in /  34496.6 hPa WSW 5.6 mph /  9 km/h 5.6 mph /  9 km/h 73 % 0.0 in /  0 mm
22:45 3.4 °F /  -15.9 °C -0.1 °F /  -17.8 °C 1013.8 in /  34327.3 hPa Calm   3.2 mph /  5.1 km/h 78 % 0.0 in /  0 mm
22:46 7.5 °F /  -13.6 °C 2.9 °F /  -16.2 °C 1018.8 in /  34496.6 hPa SW 7.4 mph /  11.9 km/h 7.4 mph /  11.9 km/h 73 % 0.0 in /  0 mm
22:51 7.4 °F /  -13.7 °C 2.9 °F /  -16.2 °C 1018.8 in /  34496.6 hPa West 3.9 mph /  6.3 km/h 3.9 mph /  6.3 km/h 73 % 0.0 in /  0 mm
22:55 3.5 °F /  -15.8 °C 0.0 °F /  -17.8 °C 1013.8 in /  34327.3 hPa SE 1.6 mph /  2.6 km/h 3.2 mph /  5.1 km/h 78 % 0.0 in /  0 mm
22:56 7.3 °F /  -13.7 °C 2.8 °F /  -16.2 °C 1018.8 in /  34496.6 hPa SW 3.7 mph /  6 km/h 3.7 mph /  6 km/h 73 % 0.0 in /  0 mm
23:01 7.2 °F /  -13.8 °C 2.7 °F /  -16.3 °C 1018.8 in /  34496.6 hPa WSW 5.0 mph /  8 km/h 5.0 mph /  8 km/h 73 % 0.0 in /  0 mm
23:05 3.4 °F /  -15.9 °C -0.1 °F /  -17.8 °C 1013.8 in /  34327.3 hPa Calm   1.6 mph /  2.6 km/h 78 % 0.0 in /  0 mm
23:06 7.2 °F /  -13.8 °C 2.7 °F /  -16.3 °C 1018.8 in /  34496.6 hPa WSW 5.6 mph /  9 km/h 5.6 mph /  9 km/h 73 % 0.0 in /  0 mm
23:11 7.1 °F /  -13.8 °C 2.6 °F /  -16.3 °C 1018.8 in /  34496.6 hPa WSW 3.7 mph /  6 km/h 3.7 mph /  6 km/h 73 % 0.0 in /  0 mm
23:15 7.0 °F /  -13.9 °C 2.5 °F /  -16.4 °C 1018.8 in /  34496.6 hPa WSW 4.2 mph /  6.8 km/h 4.2 mph /  6.8 km/h 73 % 0.0 in /  0 mm
23:21 7.0 °F /  -13.9 °C 2.5 °F /  -16.4 °C 1018.8 in /  34496.6 hPa WSW 3.9 mph /  6.3 km/h 3.9 mph /  6.3 km/h 73 % 0.0 in /  0 mm
23:25 3.3 °F /  -15.9 °C -0.2 °F /  -17.9 °C 1012.8 in /  34293.4 hPa WSW 1.6 mph /  2.6 km/h 1.6 mph /  2.6 km/h 78 % 0.0 in /  0 mm
23:26 7.2 °F /  -13.8 °C 2.9 °F /  -16.2 °C 1018.8 in /  34496.6 hPa West 5.8 mph /  9.3 km/h 5.8 mph /  9.3 km/h 74 % 0.0 in /  0 mm
23:31 7.5 °F /  -13.6 °C 3.2 °F /  -16 °C 1017.8 in /  34462.7 hPa West 5.6 mph /  9 km/h 5.6 mph /  9 km/h 74 % 0.0 in /  0 mm
23:35 3.2 °F /  -16 °C -0.3 °F /  -17.9 °C 1012.8 in /  34293.4 hPa NW 1.6 mph /  2.6 km/h 3.2 mph /  5.1 km/h 78 % 0.0 in /  0 mm
23:36 7.6 °F /  -13.6 °C 3.3 °F /  -15.9 °C 1017.8 in /  34462.7 hPa WSW 7.4 mph /  11.9 km/h 7.4 mph /  11.9 km/h 74 % 0.0 in /  0 mm
23:41 7.6 °F /  -13.6 °C 3.4 °F /  -15.9 °C 1017.8 in /  34462.7 hPa West 6.1 mph /  9.8 km/h 6.1 mph /  9.8 km/h 75 % 0.0 in /  0 mm
23:46 7.6 °F /  -13.6 °C 3.4 °F /  -15.9 °C 1018.8 in /  34496.6 hPa West 6.1 mph /  9.8 km/h 6.1 mph /  9.8 km/h 75 % 0.0 in /  0 mm
23:51 7.7 °F /  -13.5 °C 3.6 °F /  -15.8 °C 1018.8 in /  34496.6 hPa WSW 5.6 mph /  9 km/h 5.6 mph /  9 km/h 75 % 0.0 in /  0 mm
23:55 3.2 °F /  -16 °C -0.3 °F /  -17.9 °C 1011.7 in /  34256.2 hPa ENE 1.6 mph /  2.6 km/h 3.2 mph /  5.1 km/h 78 % 0.0 in /  0 mm
23:56 7.6 °F /  -13.6 °C 3.3 °F /  -15.9 °C 1018.8 in /  34496.6 hPa West 7.4 mph /  11.9 km/h 7.4 mph /  11.9 km/h 74 % 0.0 in /  0 mm
Meteo Sesrovires
Elogis d' Weather Underground - 2 mb

Guio original per  Jim McMurry - jmcmurry@mwt.net Adaptat per a la plantilla per  Wim van der Kuil - Leuven-Template.eu

Trobareu la nostra informacio del temps tambe a:

Weather Underground

AWEKAS